Current Weather

Los Alamitos Aaf

Los Alamitos, California (KSLI)

Report from: Sunday, February 25, 2024 1:55 PM PST
Current time: Sunday, February 25, 2024 2:19 PM PST

Nearby weather – Weather history – Daily summaries
Weather forecast

Present weatherHaze
Temperature19.2°C (66.6°F)
Dew point13.6°C (56.5°F)
Winds 7 kts (3.6 m/s, 8.1 mph) Southwest (220°)
Visibility6 mi. (9.7 km)
Clouds Few clouds 14,000 ft. (4,267 m)
Ceiling: Broken clouds 18,000 ft. (5,486 m)
Altimeter30.00 in.Hg (1016 mB)
Relative humidity70 %
Density altitude610 ft. (186 m)
Sea-level pressure101.6 kPa (1016 mB, 30.01 in.Hg)
Remarks Automated weather observing station with precipitation discriminator
Flight conditions Visual Meteorological Conditions
Raw dataKSLI 252155Z 22007KT 6SM HZ FEW140 BKN180 19/14 A3000 RMK AO2A SLP162 T01920136
An error has occurred. This application may no longer respond until reloaded. Reload 🗙